createdAt,value
2022-12-12T00:01:51.151Z,63.14
2022-12-12T00:06:52.635Z,62.75
2022-12-12T00:11:54.119Z,63.32
2022-12-12T00:16:55.612Z,63.61
2022-12-12T00:21:57.095Z,64.11
2022-12-12T00:26:58.584Z,63.95
2022-12-12T00:32:00.092Z,64.88
2022-12-12T00:37:01.513Z,64.94
2022-12-12T00:42:03.218Z,64.60
2022-12-12T00:47:04.798Z,65.20
2022-12-12T00:52:06.268Z,63.87
2022-12-12T00:57:08.871Z,65.08
2022-12-12T01:02:10.489Z,64.47
2022-12-12T01:07:11.992Z,64.45
2022-12-12T01:12:13.431Z,64.23
2022-12-12T01:17:14.931Z,64.13
2022-12-12T01:22:16.493Z,64.13
2022-12-12T01:27:17.995Z,64.12
2022-12-12T01:32:19.423Z,64.15
2022-12-12T01:37:21.175Z,64.44
2022-12-12T01:42:22.652Z,64.53
2022-12-12T01:47:24.919Z,64.63
2022-12-12T01:52:38.444Z,63.60
2022-12-12T01:57:44.612Z,63.64
2022-12-12T02:02:47.076Z,63.00
2022-12-12T02:07:48.626Z,63.33
2022-12-12T02:12:50.284Z,63.53
2022-12-12T02:18:03.828Z,63.98
2022-12-12T02:23:17.644Z,63.82
2022-12-12T02:28:46.818Z,64.50
2022-12-12T02:34:00.788Z,63.27
2022-12-12T02:39:08.269Z,64.30
2022-12-12T02:44:21.870Z,63.45
2022-12-12T02:49:38.852Z,63.38
2022-12-12T02:54:40.277Z,64.42
2022-12-12T02:59:45.098Z,64.37
2022-12-12T03:05:23.788Z,63.48
2022-12-12T03:10:52.905Z,63.89
2022-12-12T03:16:16.112Z,64.33
2022-12-12T03:21:39.429Z,63.39
2022-12-12T03:26:54.888Z,63.15
2022-12-12T03:32:03.418Z,62.95
2022-12-12T03:37:19.558Z,63.74
2022-12-12T03:42:23.812Z,63.76
2022-12-12T03:47:39.437Z,63.78
2022-12-12T03:52:45.575Z,64.75
2022-12-12T03:58:32.371Z,64.37
2022-12-12T04:03:49.025Z,64.23
2022-12-12T04:08:52.035Z,64.56
2022-12-12T04:14:07.994Z,64.87
2022-12-12T04:19:19.619Z,65.31
2022-12-12T04:24:34.742Z,65.76
2022-12-12T04:29:39.020Z,66.14
2022-12-12T04:35:14.953Z,66.07
2022-12-12T04:40:24.732Z,65.95
2022-12-12T04:45:34.308Z,66.16
2022-12-12T04:50:37.833Z,66.69
2022-12-12T04:55:44.368Z,67.21
2022-12-12T05:00:51.339Z,67.91
2022-12-12T05:06:09.022Z,67.13
2022-12-12T05:11:12.057Z,67.57
2022-12-12T05:16:29.099Z,67.97
2022-12-12T05:21:30.847Z,67.69
2022-12-12T05:26:34.381Z,67.49
2022-12-12T05:31:36.182Z,67.37
2022-12-12T05:36:37.677Z,66.88
2022-12-12T05:41:39.140Z,66.81
2022-12-12T05:46:40.568Z,67.07
2022-12-12T05:51:42.007Z,66.78
2022-12-12T05:56:43.428Z,66.50
2022-12-12T06:01:44.980Z,66.78
2022-12-12T06:06:46.535Z,66.15
2022-12-12T06:11:48.009Z,66.73
2022-12-12T06:16:49.504Z,66.97
2022-12-12T06:21:51.025Z,66.61
2022-12-12T06:26:53.041Z,67.20
2022-12-12T06:31:54.621Z,66.26
2022-12-12T06:36:56.109Z,66.76
2022-12-12T06:41:57.574Z,66.11
2022-12-12T06:46:59.088Z,66.27
2022-12-12T06:52:00.592Z,65.67
2022-12-12T06:57:02.091Z,64.78
2022-12-12T07:02:04.087Z,63.91
2022-12-12T07:07:05.755Z,64.50
2022-12-12T07:12:07.288Z,64.41
2022-12-12T07:17:08.780Z,64.19
2022-12-12T07:22:10.819Z,64.60
2022-12-12T07:27:16.970Z,64.27
2022-12-12T07:32:22.728Z,64.15
2022-12-12T07:37:24.243Z,64.23
2022-12-12T07:42:25.768Z,64.55
2022-12-12T07:47:27.248Z,64.75
2022-12-12T07:52:28.751Z,64.33
2022-12-12T07:57:30.783Z,63.96
2022-12-12T08:02:32.274Z,63.84
2022-12-12T08:07:33.804Z,64.27
2022-12-12T08:12:35.356Z,64.74
2022-12-12T08:17:36.833Z,63.94
2022-12-12T08:22:38.311Z,64.52
2022-12-12T08:27:39.831Z,63.87
2022-12-12T08:32:41.317Z,64.69
2022-12-12T08:37:42.785Z,63.83
2022-12-12T08:42:44.291Z,63.83
2022-12-12T08:47:45.832Z,63.52
2022-12-12T08:52:47.324Z,63.35
2022-12-12T08:57:48.820Z,64.26
2022-12-12T09:02:50.330Z,64.33
2022-12-12T09:07:52.102Z,64.14
2022-12-12T09:12:54.833Z,63.42
2022-12-12T09:17:56.340Z,63.88
2022-12-12T09:22:57.793Z,64.68
2022-12-12T09:27:59.249Z,63.55
2022-12-12T09:33:00.703Z,63.68
2022-12-12T09:38:02.462Z,63.59
2022-12-12T09:43:04.171Z,63.49
2022-12-12T09:48:07.298Z,63.42
2022-12-12T09:53:15.326Z,63.58
2022-12-12T09:58:51.385Z,63.23
2022-12-12T10:04:31.120Z,63.92
2022-12-12T10:09:50.861Z,63.76
2022-12-12T10:14:59.674Z,63.87
2022-12-12T10:20:27.522Z,64.48
2022-12-12T10:25:41.469Z,64.23
2022-12-12T10:30:55.283Z,63.83
2022-12-12T10:36:11.856Z,63.95
2022-12-12T10:41:42.722Z,63.62
2022-12-12T10:46:59.638Z,63.16
2022-12-12T10:52:06.772Z,62.32
2022-12-12T10:57:19.964Z,62.44
2022-12-12T11:02:37.003Z,62.89
2022-12-12T11:07:44.908Z,62.60
2022-12-12T11:12:54.960Z,62.36
2022-12-12T11:18:01.251Z,61.96
2022-12-12T11:23:18.497Z,61.76
2022-12-12T11:28:23.908Z,61.58
2022-12-12T11:33:45.117Z,61.51
2022-12-12T11:38:55.869Z,62.55
2022-12-12T11:43:59.273Z,61.71
2022-12-12T11:49:04.411Z,60.65
2022-12-12T11:54:13.323Z,58.67
2022-12-12T11:59:23.684Z,58.82
2022-12-12T12:04:45.902Z,55.89
2022-12-12T12:09:57.154Z,54.72
2022-12-12T12:15:18.351Z,54.92
2022-12-12T12:20:31.177Z,54.71
2022-12-12T12:25:40.965Z,55.36
2022-12-12T12:31:04.984Z,55.51
2022-12-12T12:36:19.376Z,55.58
2022-12-12T12:41:33.984Z,55.65
2022-12-12T12:47:14.548Z,53.82
2022-12-12T12:52:38.783Z,54.58
2022-12-12T12:57:44.590Z,53.13
2022-12-12T13:02:50.214Z,52.79
2022-12-12T13:07:59.989Z,52.73
2022-12-12T13:13:06.332Z,53.14
2022-12-12T13:18:14.355Z,52.85
2022-12-12T13:23:38.092Z,53.63
2022-12-12T13:28:51.435Z,55.43
2022-12-12T13:34:04.906Z,56.78
2022-12-12T13:39:08.263Z,57.87
2022-12-12T13:44:33.996Z,57.16
2022-12-12T13:49:54.041Z,57.71
2022-12-12T13:55:15.405Z,57.40
2022-12-12T14:00:18.283Z,59.07
2022-12-12T14:05:24.222Z,59.45
2022-12-12T14:10:34.182Z,58.83
2022-12-12T14:15:36.205Z,59.79
2022-12-12T14:20:41.833Z,59.55
2022-12-12T14:25:43.367Z,58.71
2022-12-12T14:30:47.882Z,59.27
2022-12-12T14:36:04.506Z,59.41
2022-12-12T14:41:13.995Z,59.56
2022-12-12T14:46:17.411Z,59.84
2022-12-12T14:51:28.951Z,61.18
2022-12-12T14:56:40.523Z,61.12
2022-12-12T15:01:51.282Z,61.64
2022-12-12T15:06:54.443Z,61.74
2022-12-12T15:12:05.138Z,62.72
2022-12-12T15:17:12.196Z,63.18
2022-12-12T15:22:29.194Z,63.52
2022-12-12T15:27:47.040Z,63.81
2022-12-12T15:32:51.179Z,63.86
2022-12-12T15:38:00.601Z,65.09
2022-12-12T15:43:10.911Z,66.28
2022-12-12T15:48:17.332Z,66.29
2022-12-12T22:11:40.369Z,62.40
2022-12-12T22:17:10.759Z,63.75
2022-12-12T22:22:12.319Z,63.21
2022-12-12T22:27:13.912Z,63.14
2022-12-12T22:32:15.498Z,63.01
2022-12-12T22:37:17.098Z,62.87
2022-12-12T22:42:18.649Z,63.52
2022-12-12T22:47:20.138Z,62.83
2022-12-12T22:52:21.644Z,62.86
2022-12-12T22:57:23.139Z,62.16
2022-12-12T23:02:25.268Z,62.58
2022-12-12T23:07:27.006Z,63.37
2022-12-12T23:12:28.743Z,63.14
2022-12-12T23:17:30.354Z,62.90
2022-12-12T23:22:32.187Z,63.52
2022-12-12T23:27:34.094Z,63.26
2022-12-12T23:32:36.256Z,63.67
2022-12-12T23:37:38.349Z,63.37
2022-12-12T23:42:41.799Z,63.79
2022-12-12T23:47:43.551Z,63.27
2022-12-12T23:52:45.449Z,63.90
2022-12-12T23:57:47.384Z,62.91
